sensor_id;sensor_type;location;lat;lon;timestamp;P1;durP1;ratioP1;P2;durP2;ratioP2
59233;SDS011;60776;51.702;7.462;2023-04-29T13:49:15;11.50;;;9.77;;
59233;SDS011;60776;51.702;7.462;2023-04-29T13:58:27;13.02;;;10.75;;
59233;SDS011;60776;51.702;7.462;2023-04-29T14:00:59;12.15;;;9.77;;
59233;SDS011;60776;51.702;7.462;2023-04-29T14:03:48;11.30;;;10.10;;
59233;SDS011;60776;51.702;7.462;2023-04-29T14:06:17;10.68;;;9.65;;
59233;SDS011;60776;51.702;7.462;2023-04-29T14:09:01;9.98;;;8.80;;
59233;SDS011;60776;51.702;7.462;2023-04-29T14:14:26;10.10;;;9.00;;
59233;SDS011;60776;51.702;7.462;2023-04-29T14:19:37;8.50;;;7.70;;
59233;SDS011;60776;51.702;7.462;2023-04-29T14:22:06;8.93;;;8.02;;
59233;SDS011;60776;51.702;7.462;2023-04-29T14:24:35;8.43;;;7.57;;
59233;SDS011;60776;51.702;7.462;2023-04-29T14:27:06;9.95;;;8.18;;
59233;SDS011;60776;51.702;7.462;2023-04-29T14:29:34;10.38;;;7.60;;
59233;SDS011;60776;51.702;7.462;2023-04-29T14:32:06;8.85;;;8.00;;
59233;SDS011;60776;51.702;7.462;2023-04-29T14:34:41;8.40;;;7.38;;
59233;SDS011;60776;51.702;7.462;2023-04-29T14:37:26;8.48;;;7.68;;
59233;SDS011;60776;51.702;7.462;2023-04-29T14:39:52;12.77;;;10.15;;
59233;SDS011;60776;51.702;7.462;2023-04-29T14:49:52;11.07;;;8.85;;
59233;SDS011;60776;51.702;7.462;2023-04-29T15:10:28;9.75;;;6.70;;
59233;SDS011;60776;51.702;7.462;2023-04-29T15:13:20;6.68;;;5.80;;
59233;SDS011;60776;51.702;7.462;2023-04-29T15:16:07;11.15;;;6.57;;
59233;SDS011;60776;51.702;7.462;2023-04-29T15:18:35;8.73;;;6.78;;
59233;SDS011;60776;51.702;7.462;2023-04-29T15:21:11;6.90;;;5.93;;
59233;SDS011;60776;51.702;7.462;2023-04-29T15:23:39;7.32;;;6.60;;
59233;SDS011;60776;51.702;7.462;2023-04-29T15:26:12;7.78;;;6.97;;
59233;SDS011;60776;51.702;7.462;2023-04-29T15:28:38;7.25;;;6.55;;
59233;SDS011;60776;51.702;7.462;2023-04-29T15:31:04;6.40;;;5.80;;
59233;SDS011;60776;51.702;7.462;2023-04-29T15:33:32;7.15;;;6.45;;
59233;SDS011;60776;51.702;7.462;2023-04-29T15:36:02;6.88;;;6.28;;
59233;SDS011;60776;51.702;7.462;2023-04-29T15:38:37;9.10;;;7.07;;
59233;SDS011;60776;51.702;7.462;2023-04-29T15:41:03;6.80;;;6.15;;
59233;SDS011;60776;51.702;7.462;2023-04-29T15:43:29;7.45;;;6.50;;
59233;SDS011;60776;51.702;7.462;2023-04-29T15:45:57;9.05;;;7.28;;
59233;SDS011;60776;51.702;7.462;2023-04-29T15:48:23;7.72;;;6.28;;
59233;SDS011;60776;51.702;7.462;2023-04-29T15:50:49;9.02;;;6.97;;
59233;SDS011;60776;51.702;7.462;2023-04-29T15:53:18;7.57;;;6.88;;
59233;SDS011;60776;51.702;7.462;2023-04-29T15:55:47;7.70;;;6.90;;
59233;SDS011;60776;51.702;7.462;2023-04-29T15:58:15;8.40;;;7.55;;
59233;SDS011;60776;51.702;7.462;2023-04-29T16:00:41;7.88;;;6.88;;
59233;SDS011;60776;51.702;7.462;2023-04-29T16:03:15;6.93;;;6.15;;
59233;SDS011;60776;51.702;7.462;2023-04-29T16:05:41;8.80;;;7.68;;
59233;SDS011;60776;51.702;7.462;2023-04-29T16:08:06;8.25;;;7.47;;
59233;SDS011;60776;51.702;7.462;2023-04-29T16:10:32;6.90;;;6.20;;
59233;SDS011;60776;51.702;7.462;2023-04-29T16:12:58;7.75;;;6.53;;
59233;SDS011;60776;51.702;7.462;2023-04-29T16:15:25;7.40;;;6.60;;
59233;SDS011;60776;51.702;7.462;2023-04-29T16:17:51;7.20;;;6.22;;
59233;SDS011;60776;51.702;7.462;2023-04-29T16:20:19;8.82;;;7.80;;
59233;SDS011;60776;51.702;7.462;2023-04-29T16:22:45;8.73;;;7.60;;
59233;SDS011;60776;51.702;7.462;2023-04-29T16:25:10;7.47;;;6.78;;
59233;SDS011;60776;51.702;7.462;2023-04-29T16:27:36;8.50;;;7.63;;
59233;SDS011;60776;51.702;7.462;2023-04-29T16:30:08;10.40;;;6.55;;
59233;SDS011;60776;51.702;7.462;2023-04-29T16:32:34;7.43;;;6.57;;
59233;SDS011;60776;51.702;7.462;2023-04-29T16:35:00;7.57;;;6.60;;
59233;SDS011;60776;51.702;7.462;2023-04-29T16:37:26;7.88;;;6.05;;
59233;SDS011;60776;51.702;7.462;2023-04-29T16:39:54;6.40;;;5.80;;
59233;SDS011;60776;51.702;7.462;2023-04-29T16:42:20;8.13;;;6.60;;
59233;SDS011;60776;51.702;7.462;2023-04-29T16:44:55;6.20;;;5.57;;
59233;SDS011;60776;51.702;7.462;2023-04-29T16:47:26;6.80;;;6.10;;
59233;SDS011;60776;51.702;7.462;2023-04-29T16:49:52;7.35;;;6.13;;
59233;SDS011;60776;51.702;7.462;2023-04-29T16:52:19;6.32;;;5.70;;
59233;SDS011;60776;51.702;7.462;2023-04-29T16:54:44;5.47;;;4.97;;
59233;SDS011;60776;51.702;7.462;2023-04-29T16:57:10;7.00;;;5.90;;
59233;SDS011;60776;51.702;7.462;2023-04-29T16:59:36;8.73;;;5.22;;
59233;SDS011;60776;51.702;7.462;2023-04-29T17:02:13;7.22;;;5.88;;
59233;SDS011;60776;51.702;7.462;2023-04-29T17:04:41;6.95;;;5.28;;
59233;SDS011;60776;51.702;7.462;2023-04-29T17:07:07;6.05;;;5.45;;
59233;SDS011;60776;51.702;7.462;2023-04-29T17:09:36;8.88;;;5.78;;
59233;SDS011;60776;51.702;7.462;2023-04-29T17:12:01;8.07;;;5.90;;
59233;SDS011;60776;51.702;7.462;2023-04-29T17:14:28;8.05;;;5.65;;
59233;SDS011;60776;51.702;7.462;2023-04-29T17:16:56;6.78;;;5.75;;
59233;SDS011;60776;51.702;7.462;2023-04-29T17:19:25;10.13;;;5.57;;
59233;SDS011;60776;51.702;7.462;2023-04-29T17:21:56;6.10;;;5.28;;
59233;SDS011;60776;51.702;7.462;2023-04-29T17:24:23;7.55;;;6.55;;
59233;SDS011;60776;51.702;7.462;2023-04-29T17:26:52;8.80;;;7.05;;
59233;SDS011;60776;51.702;7.462;2023-04-29T17:29:18;7.90;;;6.55;;
59233;SDS011;60776;51.702;7.462;2023-04-29T17:31:43;7.22;;;6.13;;
59233;SDS011;60776;51.702;7.462;2023-04-29T17:34:10;6.30;;;5.68;;
59233;SDS011;60776;51.702;7.462;2023-04-29T17:36:43;7.72;;;5.85;;
59233;SDS011;60776;51.702;7.462;2023-04-29T17:39:11;6.03;;;5.43;;
59233;SDS011;60776;51.702;7.462;2023-04-29T17:41:41;6.15;;;5.38;;
59233;SDS011;60776;51.702;7.462;2023-04-29T17:44:07;6.05;;;5.45;;
59233;SDS011;60776;51.702;7.462;2023-04-29T17:46:38;6.65;;;5.93;;
59233;SDS011;60776;51.702;7.462;2023-04-29T17:49:07;6.63;;;5.68;;
59233;SDS011;60776;51.702;7.462;2023-04-29T17:51:33;8.00;;;6.18;;
59233;SDS011;60776;51.702;7.462;2023-04-29T17:54:02;7.45;;;5.68;;
59233;SDS011;60776;51.702;7.462;2023-04-29T17:56:31;6.50;;;5.85;;
59233;SDS011;60776;51.702;7.462;2023-04-29T17:58:58;7.22;;;6.53;;
59233;SDS011;60776;51.702;7.462;2023-04-29T18:01:36;6.93;;;5.47;;
59233;SDS011;60776;51.702;7.462;2023-04-29T18:04:02;8.10;;;6.00;;
59233;SDS011;60776;51.702;7.462;2023-04-29T18:06:31;6.45;;;5.72;;
59233;SDS011;60776;51.702;7.462;2023-04-29T18:08:57;6.57;;;5.50;;
59233;SDS011;60776;51.702;7.462;2023-04-29T18:11:22;6.50;;;5.90;;
59233;SDS011;60776;51.702;7.462;2023-04-29T18:13:51;6.13;;;5.07;;
59233;SDS011;60776;51.702;7.462;2023-04-29T18:16:18;7.45;;;5.50;;
59233;SDS011;60776;51.702;7.462;2023-04-29T18:18:43;5.32;;;4.80;;
59233;SDS011;60776;51.702;7.462;2023-04-29T18:21:10;5.82;;;5.20;;
59233;SDS011;60776;51.702;7.462;2023-04-29T18:23:38;5.75;;;5.05;;
59233;SDS011;60776;51.702;7.462;2023-04-29T18:26:04;5.82;;;5.15;;
59233;SDS011;60776;51.702;7.462;2023-04-29T18:28:32;4.97;;;4.55;;
59233;SDS011;60776;51.702;7.462;2023-04-29T18:30:58;5.53;;;5.03;;
59233;SDS011;60776;51.702;7.462;2023-04-29T18:33:24;7.35;;;5.72;;
59233;SDS011;60776;51.702;7.462;2023-04-29T18:35:50;7.07;;;5.45;;
59233;SDS011;60776;51.702;7.462;2023-04-29T18:38:19;5.07;;;4.68;;
59233;SDS011;60776;51.702;7.462;2023-04-29T18:40:45;6.60;;;6.00;;
59233;SDS011;60776;51.702;7.462;2023-04-29T18:43:10;6.38;;;5.38;;
59233;SDS011;60776;51.702;7.462;2023-04-29T18:45:39;5.28;;;4.78;;
59233;SDS011;60776;51.702;7.462;2023-04-29T18:48:05;7.20;;;6.50;;
59233;SDS011;60776;51.702;7.462;2023-04-29T18:50:40;6.03;;;5.43;;
59233;SDS011;60776;51.702;7.462;2023-04-29T18:53:08;8.98;;;6.20;;
59233;SDS011;60776;51.702;7.462;2023-04-29T18:55:36;6.85;;;5.68;;
59233;SDS011;60776;51.702;7.462;2023-04-29T18:58:05;7.65;;;5.47;;
59233;SDS011;60776;51.702;7.462;2023-04-29T19:00:31;6.80;;;5.15;;
59233;SDS011;60776;51.702;7.462;2023-04-29T19:03:00;6.57;;;5.35;;
59233;SDS011;60776;51.702;7.462;2023-04-29T19:05:25;7.88;;;6.13;;
59233;SDS011;60776;51.702;7.462;2023-04-29T19:07:54;7.57;;;6.47;;
59233;SDS011;60776;51.702;7.462;2023-04-29T19:10:19;7.15;;;6.45;;
59233;SDS011;60776;51.702;7.462;2023-04-29T19:12:48;7.72;;;6.93;;
59233;SDS011;60776;51.702;7.462;2023-04-29T19:15:14;8.98;;;7.30;;
59233;SDS011;60776;51.702;7.462;2023-04-29T19:17:42;11.90;;;7.85;;
59233;SDS011;60776;51.702;7.462;2023-04-29T19:20:10;9.48;;;7.47;;
59233;SDS011;60776;51.702;7.462;2023-04-29T19:22:36;13.27;;;7.03;;
59233;SDS011;60776;51.702;7.462;2023-04-29T19:25:07;10.35;;;6.97;;
59233;SDS011;60776;51.702;7.462;2023-04-29T19:27:34;7.90;;;6.57;;
59233;SDS011;60776;51.702;7.462;2023-04-29T19:30:00;8.52;;;6.22;;
59233;SDS011;60776;51.702;7.462;2023-04-29T19:32:26;6.88;;;5.68;;
59233;SDS011;60776;51.702;7.462;2023-04-29T19:34:52;8.18;;;6.78;;
59233;SDS011;60776;51.702;7.462;2023-04-29T19:37:18;8.88;;;6.63;;
59233;SDS011;60776;51.702;7.462;2023-04-29T19:39:43;7.82;;;6.38;;
59233;SDS011;60776;51.702;7.462;2023-04-29T19:42:12;7.30;;;5.82;;
59233;SDS011;60776;51.702;7.462;2023-04-29T19:44:40;8.43;;;6.55;;
59233;SDS011;60776;51.702;7.462;2023-04-29T19:47:10;7.97;;;6.00;;
59233;SDS011;60776;51.702;7.462;2023-04-29T19:49:39;8.07;;;6.57;;
59233;SDS011;60776;51.702;7.462;2023-04-29T19:52:05;6.43;;;5.82;;
59233;SDS011;60776;51.702;7.462;2023-04-29T19:54:32;6.60;;;5.30;;
59233;SDS011;60776;51.702;7.462;2023-04-29T19:57:01;7.43;;;6.05;;
59233;SDS011;60776;51.702;7.462;2023-04-29T19:59:27;6.93;;;6.15;;
59233;SDS011;60776;51.702;7.462;2023-04-29T20:01:53;5.85;;;5.30;;
59233;SDS011;60776;51.702;7.462;2023-04-29T20:04:19;6.72;;;5.57;;
59233;SDS011;60776;51.702;7.462;2023-04-29T20:06:48;6.03;;;4.85;;
59233;SDS011;60776;51.702;7.462;2023-04-29T20:09:15;5.93;;;5.30;;
59233;SDS011;60776;51.702;7.462;2023-04-29T20:11:42;6.20;;;5.57;;
59233;SDS011;60776;51.702;7.462;2023-04-29T20:14:08;6.03;;;5.43;;
59233;SDS011;60776;51.702;7.462;2023-04-29T20:16:37;6.05;;;5.28;;
59233;SDS011;60776;51.702;7.462;2023-04-29T20:19:06;6.20;;;5.63;;
59233;SDS011;60776;51.702;7.462;2023-04-29T20:21:35;6.22;;;5.38;;
59233;SDS011;60776;51.702;7.462;2023-04-29T20:24:01;5.75;;;5.07;;
59233;SDS011;60776;51.702;7.462;2023-04-29T20:26:30;7.22;;;4.90;;
59233;SDS011;60776;51.702;7.462;2023-04-29T20:28:58;5.95;;;4.70;;
59233;SDS011;60776;51.702;7.462;2023-04-29T20:31:27;5.90;;;5.22;;
59233;SDS011;60776;51.702;7.462;2023-04-29T20:33:53;5.95;;;5.15;;
59233;SDS011;60776;51.702;7.462;2023-04-29T20:36:19;5.68;;;4.63;;
59233;SDS011;60776;51.702;7.462;2023-04-29T20:39:00;5.53;;;4.82;;
59233;SDS011;60776;51.702;7.462;2023-04-29T20:41:26;6.68;;;5.20;;
59233;SDS011;60776;51.702;7.462;2023-04-29T20:43:57;8.20;;;6.00;;
59233;SDS011;60776;51.702;7.462;2023-04-29T20:46:25;8.43;;;7.00;;
59233;SDS011;60776;51.702;7.462;2023-04-29T20:48:54;13.85;;;8.52;;
59233;SDS011;60776;51.702;7.462;2023-04-29T20:51:20;8.57;;;6.88;;
59233;SDS011;60776;51.702;7.462;2023-04-29T20:53:46;8.70;;;5.95;;
59233;SDS011;60776;51.702;7.462;2023-04-29T20:56:12;5.65;;;4.78;;
59233;SDS011;60776;51.702;7.462;2023-04-29T20:58:40;5.47;;;4.90;;
59233;SDS011;60776;51.702;7.462;2023-04-29T21:01:14;8.00;;;5.50;;
59233;SDS011;60776;51.702;7.462;2023-04-29T21:03:57;7.07;;;5.55;;
59233;SDS011;60776;51.702;7.462;2023-04-29T21:06:26;7.18;;;5.60;;
59233;SDS011;60776;51.702;7.462;2023-04-29T21:08:57;7.63;;;5.40;;
59233;SDS011;60776;51.702;7.462;2023-04-29T21:11:33;6.85;;;6.13;;
59233;SDS011;60776;51.702;7.462;2023-04-29T21:14:07;9.45;;;4.95;;
59233;SDS011;60776;51.702;7.462;2023-04-29T21:16:40;7.47;;;5.60;;
59233;SDS011;60776;51.702;7.462;2023-04-29T21:19:09;7.82;;;5.88;;
59233;SDS011;60776;51.702;7.462;2023-04-29T21:21:42;8.68;;;6.20;;
59233;SDS011;60776;51.702;7.462;2023-04-29T21:24:11;7.38;;;6.13;;
59233;SDS011;60776;51.702;7.462;2023-04-29T21:26:40;9.23;;;6.00;;
59233;SDS011;60776;51.702;7.462;2023-04-29T21:34:17;6.53;;;5.72;;
59233;SDS011;60776;51.702;7.462;2023-04-29T21:36:43;6.95;;;6.22;;
59233;SDS011;60776;51.702;7.462;2023-04-29T21:39:20;6.82;;;6.15;;
59233;SDS011;60776;51.702;7.462;2023-04-29T21:41:46;7.82;;;6.53;;
59233;SDS011;60776;51.702;7.462;2023-04-29T21:44:11;6.97;;;6.18;;
59233;SDS011;60776;51.702;7.462;2023-04-29T21:46:38;8.15;;;6.25;;
59233;SDS011;60776;51.702;7.462;2023-04-29T21:49:03;8.10;;;6.00;;
59233;SDS011;60776;51.702;7.462;2023-04-29T21:51:29;8.18;;;6.53;;
59233;SDS011;60776;51.702;7.462;2023-04-29T21:53:56;6.88;;;5.88;;
59233;SDS011;60776;51.702;7.462;2023-04-29T21:56:47;7.07;;;6.10;;
59233;SDS011;60776;51.702;7.462;2023-04-29T21:59:15;8.50;;;5.85;;
59233;SDS011;60776;51.702;7.462;2023-04-29T22:01:43;8.52;;;6.93;;
59233;SDS011;60776;51.702;7.462;2023-04-29T22:04:09;7.10;;;6.20;;
59233;SDS011;60776;51.702;7.462;2023-04-29T22:06:35;7.43;;;6.47;;
59233;SDS011;60776;51.702;7.462;2023-04-29T22:09:06;9.07;;;6.93;;
59233;SDS011;60776;51.702;7.462;2023-04-29T22:11:35;9.43;;;6.83;;
59233;SDS011;60776;51.702;7.462;2023-04-29T22:14:03;8.07;;;6.63;;
59233;SDS011;60776;51.702;7.462;2023-04-29T22:16:29;7.97;;;6.23;;
59233;SDS011;60776;51.702;7.462;2023-04-29T22:19:03;8.50;;;7.30;;
59233;SDS011;60776;51.702;7.462;2023-04-29T22:21:45;8.77;;;7.17;;
59233;SDS011;60776;51.702;7.462;2023-04-29T22:24:13;8.85;;;7.43;;
59233;SDS011;60776;51.702;7.462;2023-04-29T22:26:50;10.93;;;7.13;;
59233;SDS011;60776;51.702;7.462;2023-04-29T22:29:19;7.53;;;6.73;;
59233;SDS011;60776;51.702;7.462;2023-04-29T22:31:44;10.17;;;7.90;;
59233;SDS011;60776;51.702;7.462;2023-04-29T22:34:10;8.83;;;7.50;;
59233;SDS011;60776;51.702;7.462;2023-04-29T22:36:36;9.53;;;7.70;;
59233;SDS011;60776;51.702;7.462;2023-04-29T22:39:05;9.37;;;7.63;;
59233;SDS011;60776;51.702;7.462;2023-04-29T22:41:31;9.40;;;7.17;;
59233;SDS011;60776;51.702;7.462;2023-04-29T22:44:07;8.80;;;7.27;;
59233;SDS011;60776;51.702;7.462;2023-04-29T22:46:43;8.23;;;6.60;;
59233;SDS011;60776;51.702;7.462;2023-04-29T22:49:15;9.50;;;6.43;;
59233;SDS011;60776;51.702;7.462;2023-04-29T22:51:43;8.93;;;7.20;;
59233;SDS011;60776;51.702;7.462;2023-04-29T22:54:09;9.50;;;7.50;;
59233;SDS011;60776;51.702;7.462;2023-04-29T22:56:37;9.40;;;7.77;;
59233;SDS011;60776;51.702;7.462;2023-04-29T22:59:24;9.00;;;7.57;;
59233;SDS011;60776;51.702;7.462;2023-04-29T23:02:40;11.57;;;8.80;;
59233;SDS011;60776;51.702;7.462;2023-04-29T23:05:18;9.50;;;7.57;;
59233;SDS011;60776;51.702;7.462;2023-04-29T23:10:51;8.10;;;7.20;;
59233;SDS011;60776;51.702;7.462;2023-04-29T23:13:17;8.30;;;6.37;;
59233;SDS011;60776;51.702;7.462;2023-04-29T23:15:43;9.47;;;7.83;;
59233;SDS011;60776;51.702;7.462;2023-04-29T23:18:11;10.47;;;8.00;;
59233;SDS011;60776;51.702;7.462;2023-04-29T23:23:35;8.70;;;7.50;;
59233;SDS011;60776;51.702;7.462;2023-04-29T23:26:01;8.10;;;7.30;;
59233;SDS011;60776;51.702;7.462;2023-04-29T23:28:30;9.03;;;7.30;;
59233;SDS011;60776;51.702;7.462;2023-04-29T23:31:07;9.07;;;6.73;;
59233;SDS011;60776;51.702;7.462;2023-04-29T23:33:33;9.87;;;7.20;;
59233;SDS011;60776;51.702;7.462;2023-04-29T23:36:01;6.60;;;5.97;;
59233;SDS011;60776;51.702;7.462;2023-04-29T23:38:27;9.17;;;6.57;;
59233;SDS011;60776;51.702;7.462;2023-04-29T23:40:55;9.07;;;7.03;;
59233;SDS011;60776;51.702;7.462;2023-04-29T23:43:24;8.80;;;6.37;;
59233;SDS011;60776;51.702;7.462;2023-04-29T23:46:00;7.90;;;6.63;;
59233;SDS011;60776;51.702;7.462;2023-04-29T23:48:38;9.03;;;6.87;;
59233;SDS011;60776;51.702;7.462;2023-04-29T23:51:04;8.37;;;7.27;;
59233;SDS011;60776;51.702;7.462;2023-04-29T23:53:32;11.37;;;8.50;;
59233;SDS011;60776;51.702;7.462;2023-04-29T23:55:59;11.57;;;8.60;;
59233;SDS011;60776;51.702;7.462;2023-04-29T23:58:24;12.30;;;8.90;;
